createdAt,value
2019-01-31T00:01:57.628Z,21.95
2019-01-31T00:05:03.971Z,21.80
2019-01-31T00:07:50.107Z,22.60
2019-01-31T00:11:00.478Z,22.82
2019-01-31T00:14:02.541Z,19.75
2019-01-31T00:17:16.985Z,21.85
2019-01-31T00:20:02.072Z,20.30
2019-01-31T00:23:27.948Z,22.50
2019-01-31T00:26:24.965Z,21.35
2019-01-31T00:29:12.495Z,22.25
2019-01-31T00:31:59.696Z,20.92
2019-01-31T00:35:19.320Z,21.33
2019-01-31T00:38:01.298Z,20.92
2019-01-31T00:41:08.865Z,22.60
2019-01-31T00:43:46.146Z,23.38
2019-01-31T00:46:51.616Z,23.77
2019-01-31T00:49:49.683Z,22.45
2019-01-31T00:53:07.677Z,22.95
2019-01-31T00:56:01.304Z,20.72
2019-01-31T00:59:06.454Z,21.68
2019-01-31T01:02:41.474Z,20.90
2019-01-31T01:05:37.054Z,22.27
2019-01-31T01:08:19.605Z,23.42
2019-01-31T01:11:42.080Z,23.18
2019-01-31T01:14:57.980Z,21.60
2019-01-31T01:17:38.207Z,22.07
2019-01-31T01:20:51.623Z,23.42
2019-01-31T01:23:57.917Z,21.45
2019-01-31T01:26:42.702Z,23.18
2019-01-31T01:29:26.517Z,20.68
2019-01-31T01:32:13.883Z,23.30
2019-01-31T01:35:39.696Z,22.25
2019-01-31T01:38:58.285Z,22.67
2019-01-31T01:42:07.317Z,22.73
2019-01-31T01:45:21.524Z,22.17
2019-01-31T01:48:18.183Z,23.42
2019-01-31T01:51:17.496Z,22.25
2019-01-31T01:54:36.884Z,23.20
2019-01-31T01:57:51.252Z,19.80
2019-01-31T02:00:35.954Z,22.17
2019-01-31T02:03:39.961Z,22.48
2019-01-31T02:06:38.268Z,23.42
2019-01-31T02:09:30.215Z,22.85
2019-01-31T02:12:20.988Z,22.15
2019-01-31T02:15:23.168Z,24.50
2019-01-31T02:18:32.824Z,22.00
2019-01-31T02:21:48.760Z,22.27
2019-01-31T02:24:41.885Z,23.70
2019-01-31T02:27:55.248Z,22.52
2019-01-31T02:31:20.676Z,21.95
2019-01-31T02:34:34.256Z,20.43
2019-01-31T02:37:41.432Z,22.00
2019-01-31T02:40:33.586Z,21.40
2019-01-31T02:43:40.081Z,23.20
2019-01-31T02:46:22.363Z,22.37
2019-01-31T02:49:19.741Z,24.55
2019-01-31T02:52:05.141Z,22.05
2019-01-31T02:54:51.101Z,22.85
2019-01-31T02:57:44.370Z,22.50
2019-01-31T03:00:46.944Z,24.20
2019-01-31T03:03:43.308Z,23.73
2019-01-31T03:06:48.575Z,20.50
2019-01-31T03:09:30.160Z,22.13
2019-01-31T03:12:06.177Z,21.87
2019-01-31T03:14:39.861Z,24.95
2019-01-31T03:17:42.561Z,22.15
2019-01-31T03:20:30.004Z,21.68
2019-01-31T03:23:48.210Z,21.95
2019-01-31T03:26:43.039Z,23.25
2019-01-31T03:29:35.475Z,21.52
2019-01-31T03:32:17.814Z,23.32
2019-01-31T03:35:14.581Z,23.60
2019-01-31T03:38:34.581Z,22.22
2019-01-31T03:41:25.452Z,25.00
2019-01-31T03:44:26.044Z,25.50
2019-01-31T03:47:35.917Z,23.62
2019-01-31T03:50:19.898Z,23.35
2019-01-31T03:53:42.272Z,23.47
2019-01-31T03:56:36.473Z,23.75
2019-01-31T03:59:46.330Z,23.20
2019-01-31T04:02:43.818Z,21.87
2019-01-31T04:05:53.398Z,25.15
2019-01-31T04:08:22.520Z,24.47
2019-01-31T04:10:51.701Z,23.73
2019-01-31T04:13:20.795Z,24.30
2019-01-31T04:15:50.036Z,24.07
2019-01-31T04:18:19.203Z,23.55
2019-01-31T04:20:51.048Z,23.70
2019-01-31T04:23:19.293Z,25.20
2019-01-31T04:25:48.445Z,25.35
2019-01-31T04:28:17.553Z,26.12
2019-01-31T04:30:46.633Z,26.40
2019-01-31T04:33:15.748Z,30.90
2019-01-31T04:35:44.920Z,25.20
2019-01-31T04:38:14.021Z,27.40
2019-01-31T04:40:43.127Z,25.95
2019-01-31T04:43:12.286Z,27.90
2019-01-31T04:45:41.396Z,24.10
2019-01-31T04:48:10.638Z,29.55
2019-01-31T04:50:39.824Z,31.87
2019-01-31T04:53:08.940Z,28.02
2019-01-31T04:55:38.031Z,26.00
2019-01-31T04:58:07.308Z,25.45
2019-01-31T05:00:36.781Z,26.33
2019-01-31T05:03:05.953Z,24.10
2019-01-31T05:05:35.084Z,26.57
2019-01-31T05:08:04.292Z,25.72
2019-01-31T05:10:42.632Z,26.42
2019-01-31T05:13:04.534Z,26.35
2019-01-31T05:15:33.846Z,25.52
2019-01-31T05:18:02.997Z,27.85
2019-01-31T05:20:32.121Z,25.32
2019-01-31T05:23:01.304Z,26.12
2019-01-31T05:25:30.433Z,27.40
2019-01-31T05:27:59.606Z,26.62
2019-01-31T05:30:28.702Z,26.60
2019-01-31T05:32:59.061Z,25.10
2019-01-31T05:35:28.586Z,26.37
2019-01-31T05:37:57.972Z,28.80
2019-01-31T05:40:28.072Z,26.77
2019-01-31T05:43:18.664Z,29.37
2019-01-31T05:49:21.343Z,29.60
2019-01-31T05:51:53.979Z,29.37
2019-01-31T05:54:23.310Z,26.73
2019-01-31T05:58:19.222Z,27.13
2019-01-31T06:01:58.825Z,27.45
2019-01-31T06:05:09.344Z,26.02
2019-01-31T06:07:45.866Z,26.57
2019-01-31T06:10:15.273Z,26.05
2019-01-31T06:12:44.687Z,33.60
2019-01-31T06:15:15.091Z,33.30
2019-01-31T06:17:45.746Z,28.32
2019-01-31T06:58:10.852Z,25.05
2019-01-31T07:11:41.353Z,23.47
2019-01-31T07:32:13.642Z,27.73
2019-01-31T08:03:16.288Z,25.25
2019-01-31T08:14:55.530Z,27.40
2019-01-31T08:33:07.015Z,27.40
2019-01-31T08:44:32.337Z,24.52
2019-01-31T08:51:27.068Z,26.23
2019-01-31T08:55:32.780Z,26.60
2019-01-31T09:04:31.666Z,27.37
2019-01-31T09:08:17.124Z,27.87
2019-01-31T09:13:26.984Z,27.35
2019-01-31T09:16:29.474Z,25.82
2019-01-31T09:19:37.779Z,26.30
2019-01-31T09:23:16.743Z,27.35
2019-01-31T09:27:03.942Z,27.32
2019-01-31T09:34:21.543Z,27.90
2019-01-31T09:37:57.660Z,26.60
2019-01-31T09:41:34.837Z,26.20
2019-01-31T09:45:18.321Z,25.20
2019-01-31T09:48:35.174Z,26.57
2019-01-31T09:52:02.375Z,26.40
2019-01-31T10:02:53.311Z,21.73
2019-01-31T10:11:10.668Z,20.88
2019-01-31T10:13:19.814Z,23.12
2019-01-31T10:14:42.018Z,25.68
2019-01-31T10:18:47.035Z,26.12
2019-01-31T10:22:21.763Z,24.57
2019-01-31T10:36:24.664Z,24.30
2019-01-31T10:47:28.260Z,20.52
2019-01-31T10:51:16.653Z,21.90
2019-01-31T10:55:00.654Z,18.90
2019-01-31T10:58:36.949Z,19.00
2019-01-31T11:01:54.171Z,19.87
2019-01-31T11:08:58.136Z,19.27
2019-01-31T11:12:23.968Z,19.57
2019-01-31T11:17:41.586Z,20.30
2019-01-31T11:19:45.014Z,19.30
2019-01-31T11:27:08.370Z,16.82
2019-01-31T11:39:02.235Z,17.35
2019-01-31T11:51:12.794Z,15.95
2019-01-31T11:55:03.050Z,17.07
2019-01-31T12:06:40.731Z,17.10
2019-01-31T12:15:14.921Z,15.50
2019-01-31T12:33:09.519Z,13.80
2019-01-31T13:40:26.588Z,11.25
2019-01-31T13:59:14.219Z,12.15
2019-01-31T14:05:57.191Z,14.03
2019-01-31T14:15:41.687Z,13.48
2019-01-31T14:23:47.019Z,13.15
2019-01-31T14:54:48.436Z,9.33
2019-01-31T15:14:10.255Z,18.07
2019-01-31T15:16:44.073Z,17.40
2019-01-31T15:27:43.708Z,19.00
2019-01-31T16:01:59.145Z,16.52
2019-01-31T16:08:53.057Z,18.17
2019-01-31T16:12:38.816Z,16.35
2019-01-31T16:15:50.064Z,16.87
2019-01-31T16:18:49.993Z,17.02
2019-01-31T16:32:35.594Z,17.37
2019-01-31T16:39:16.713Z,17.12
2019-01-31T16:58:21.147Z,14.85
2019-01-31T17:09:45.951Z,16.40
2019-01-31T17:29:33.649Z,26.60
2019-01-31T17:35:32.778Z,20.20
2019-01-31T17:38:04.986Z,17.70
2019-01-31T17:40:42.617Z,16.37
2019-01-31T17:43:14.770Z,18.02
2019-01-31T17:45:45.186Z,17.20
2019-01-31T17:48:16.911Z,20.80
2019-01-31T17:50:47.102Z,19.20
2019-01-31T17:53:16.421Z,19.42
2019-01-31T17:55:46.405Z,19.05
2019-01-31T17:58:17.146Z,20.88
2019-01-31T18:00:56.408Z,20.08
2019-01-31T18:03:25.933Z,20.25
2019-01-31T18:05:55.171Z,21.05
2019-01-31T18:08:34.704Z,22.30
2019-01-31T18:11:11.427Z,20.72
2019-01-31T18:13:40.680Z,21.27
2019-01-31T18:16:21.263Z,22.42
2019-01-31T18:18:52.410Z,23.75
2019-01-31T18:21:29.720Z,23.35
2019-01-31T18:24:14.816Z,22.67
2019-01-31T18:26:44.086Z,22.60
2019-01-31T18:29:13.355Z,21.85
2019-01-31T18:31:48.276Z,23.12
2019-01-31T18:34:19.103Z,23.27
2019-01-31T18:36:51.059Z,24.30
2019-01-31T18:39:20.415Z,23.65
2019-01-31T18:41:49.833Z,24.65
2019-01-31T18:44:18.997Z,22.80
2019-01-31T18:46:50.548Z,22.80
2019-01-31T18:49:30.450Z,25.30
2019-01-31T18:52:02.548Z,28.05
2019-01-31T18:54:36.419Z,26.00
2019-01-31T18:57:12.792Z,26.50
2019-01-31T19:04:26.539Z,24.87
2019-01-31T19:06:55.853Z,29.00
2019-01-31T19:09:25.580Z,26.65
2019-01-31T19:12:14.580Z,26.77
2019-01-31T19:14:43.713Z,27.58
2019-01-31T19:17:12.864Z,29.63
2019-01-31T19:19:42.044Z,27.48
2019-01-31T19:22:11.248Z,28.12
2019-01-31T19:24:40.810Z,28.10
2019-01-31T19:27:10.200Z,25.92
2019-01-31T19:29:39.552Z,30.68
2019-01-31T19:32:08.677Z,30.30
2019-01-31T19:34:37.929Z,28.92
2019-01-31T19:37:07.343Z,28.98
2019-01-31T19:39:36.568Z,29.25
2019-01-31T19:42:05.839Z,29.90
2019-01-31T19:44:35.050Z,30.35
2019-01-31T19:47:05.407Z,29.05
2019-01-31T19:49:34.520Z,27.93
2019-01-31T19:52:03.876Z,27.70
2019-01-31T19:54:33.000Z,31.20
2019-01-31T19:57:02.150Z,29.35
2019-01-31T19:59:31.348Z,29.25
2019-01-31T20:02:00.516Z,28.25
2019-01-31T20:04:29.799Z,30.77
2019-01-31T20:06:58.985Z,30.23
2019-01-31T20:09:28.400Z,28.80
2019-01-31T20:11:57.947Z,31.45
2019-01-31T20:14:27.408Z,30.35
2019-01-31T20:16:56.675Z,30.25
2019-01-31T20:19:25.852Z,33.02
2019-01-31T20:21:54.968Z,36.05
2019-01-31T20:24:24.220Z,31.23
2019-01-31T20:26:53.678Z,32.83
2019-01-31T20:29:22.956Z,28.02
2019-01-31T20:31:52.317Z,30.30
2019-01-31T20:34:21.432Z,29.20
2019-01-31T20:36:50.684Z,29.05
2019-01-31T20:39:19.879Z,28.90
2019-01-31T20:41:54.290Z,30.00
2019-01-31T20:44:20.108Z,31.42
2019-01-31T20:46:49.219Z,31.62
2019-01-31T20:49:19.928Z,32.40
2019-01-31T20:51:49.200Z,29.35
2019-01-31T20:54:18.420Z,29.00
2019-01-31T20:56:47.592Z,29.98
2019-01-31T20:59:18.213Z,30.85
2019-01-31T21:01:47.821Z,28.38
2019-01-31T21:04:17.151Z,30.88
2019-01-31T21:06:46.434Z,30.15
2019-01-31T21:09:15.615Z,28.30
2019-01-31T21:11:44.900Z,28.42
2019-01-31T21:14:14.123Z,24.75
2019-01-31T21:16:51.453Z,27.87
2019-01-31T21:19:14.198Z,28.40
2019-01-31T21:21:43.381Z,31.62
2019-01-31T21:24:12.629Z,25.65
2019-01-31T21:26:41.805Z,28.55
2019-01-31T21:29:10.981Z,26.80
2019-01-31T21:31:40.228Z,30.92
2019-01-31T21:34:09.352Z,29.10
2019-01-31T21:36:38.548Z,29.80
2019-01-31T21:39:09.521Z,28.62
2019-01-31T21:41:38.774Z,29.40
2019-01-31T21:44:08.061Z,26.40
2019-01-31T21:46:37.235Z,29.42
2019-01-31T21:49:06.528Z,28.47
2019-01-31T21:51:35.636Z,27.45
2019-01-31T21:54:04.951Z,28.70
2019-01-31T21:56:34.137Z,26.33
2019-01-31T21:59:03.369Z,28.77
2019-01-31T22:01:32.759Z,27.45
2019-01-31T22:04:01.885Z,26.68
2019-01-31T22:06:31.092Z,27.25
2019-01-31T22:09:00.337Z,28.02
2019-01-31T22:11:29.436Z,28.67
2019-01-31T22:13:58.564Z,27.42
2019-01-31T22:16:27.669Z,26.77
2019-01-31T22:18:56.777Z,29.52
2019-01-31T22:21:25.882Z,27.67
2019-01-31T22:23:55.249Z,29.15
2019-01-31T22:26:24.421Z,26.77
2019-01-31T22:28:53.516Z,29.25
2019-01-31T22:31:22.646Z,26.82
2019-01-31T22:33:51.816Z,28.32
2019-01-31T22:36:20.954Z,27.75
2019-01-31T22:38:50.122Z,27.45
2019-01-31T22:41:19.288Z,26.93
2019-01-31T22:43:48.483Z,24.00
2019-01-31T22:46:17.656Z,25.68
2019-01-31T22:48:46.757Z,24.47
2019-01-31T22:51:15.831Z,26.05
2019-01-31T22:53:44.956Z,24.92
2019-01-31T22:56:14.177Z,23.67
2019-01-31T22:58:43.412Z,25.50
2019-01-31T23:01:46.761Z,23.02
2019-01-31T23:04:15.921Z,24.30
2019-01-31T23:06:45.171Z,25.15
2019-01-31T23:09:14.370Z,22.00
2019-01-31T23:11:43.476Z,24.85
2019-01-31T23:14:12.572Z,22.35
2019-01-31T23:16:42.110Z,22.35
2019-01-31T23:19:11.204Z,22.27
2019-01-31T23:21:40.429Z,23.22
2019-01-31T23:24:09.681Z,22.50
2019-01-31T23:26:38.947Z,21.62
2019-01-31T23:29:08.208Z,21.95
2019-01-31T23:31:37.442Z,22.02
2019-01-31T23:34:06.760Z,18.65
2019-01-31T23:36:35.924Z,23.25
2019-01-31T23:39:09.008Z,20.90
2019-01-31T23:41:38.208Z,21.40
2019-01-31T23:44:07.478Z,21.82
2019-01-31T23:46:36.592Z,22.37
2019-01-31T23:49:05.865Z,21.37
2019-01-31T23:51:35.041Z,21.35
2019-01-31T23:54:04.392Z,20.80
2019-01-31T23:56:33.512Z,22.13
2019-01-31T23:59:02.588Z,23.73
